sensor_id;sensor_type;location;lat;lon;timestamp;P1;durP1;ratioP1;P2;durP2;ratioP2
5040;SDS011;2539;52.568;13.364;2022-08-21T00:01:48;8.83;;;7.53;;
5040;SDS011;2539;52.568;13.364;2022-08-21T00:04:15;9.23;;;8.37;;
5040;SDS011;2539;52.568;13.364;2022-08-21T00:06:41;9.07;;;7.63;;
5040;SDS011;2539;52.568;13.364;2022-08-21T00:09:08;8.57;;;7.77;;
5040;SDS011;2539;52.568;13.364;2022-08-21T00:11:35;8.50;;;7.80;;
5040;SDS011;2539;52.568;13.364;2022-08-21T00:14:04;9.20;;;7.50;;
5040;SDS011;2539;52.568;13.364;2022-08-21T00:16:32;8.00;;;7.13;;
5040;SDS011;2539;52.568;13.364;2022-08-21T00:18:59;11.93;;;8.20;;
5040;SDS011;2539;52.568;13.364;2022-08-21T00:21:25;9.33;;;7.70;;
5040;SDS011;2539;52.568;13.364;2022-08-21T00:23:52;8.27;;;7.47;;
5040;SDS011;2539;52.568;13.364;2022-08-21T00:26:18;8.27;;;7.47;;
5040;SDS011;2539;52.568;13.364;2022-08-21T00:28:44;8.33;;;7.40;;
5040;SDS011;2539;52.568;13.364;2022-08-21T00:31:14;7.83;;;7.23;;
5040;SDS011;2539;52.568;13.364;2022-08-21T00:33:41;9.23;;;7.23;;
5040;SDS011;2539;52.568;13.364;2022-08-21T00:36:08;8.47;;;7.67;;
5040;SDS011;2539;52.568;13.364;2022-08-21T00:38:34;9.23;;;7.93;;
5040;SDS011;2539;52.568;13.364;2022-08-21T00:41:01;8.57;;;7.67;;
5040;SDS011;2539;52.568;13.364;2022-08-21T00:43:31;8.97;;;8.27;;
5040;SDS011;2539;52.568;13.364;2022-08-21T00:45:59;8.88;;;7.97;;
5040;SDS011;2539;52.568;13.364;2022-08-21T00:48:25;9.97;;;8.73;;
5040;SDS011;2539;52.568;13.364;2022-08-21T00:50:53;9.30;;;8.30;;
5040;SDS011;2539;52.568;13.364;2022-08-21T00:53:24;9.17;;;8.27;;
5040;SDS011;2539;52.568;13.364;2022-08-21T00:55:51;10.43;;;8.63;;
5040;SDS011;2539;52.568;13.364;2022-08-21T00:58:18;10.57;;;9.27;;
5040;SDS011;2539;52.568;13.364;2022-08-21T01:00:45;9.37;;;8.40;;
5040;SDS011;2539;52.568;13.364;2022-08-21T01:03:15;10.10;;;8.90;;
5040;SDS011;2539;52.568;13.364;2022-08-21T01:05:44;12.30;;;8.90;;
5040;SDS011;2539;52.568;13.364;2022-08-21T01:08:11;12.13;;;8.60;;
5040;SDS011;2539;52.568;13.364;2022-08-21T01:10:39;10.73;;;8.90;;
5040;SDS011;2539;52.568;13.364;2022-08-21T01:13:06;10.67;;;9.47;;
5040;SDS011;2539;52.568;13.364;2022-08-21T01:15:36;13.00;;;9.50;;
5040;SDS011;2539;52.568;13.364;2022-08-21T01:18:06;10.53;;;9.37;;
5040;SDS011;2539;52.568;13.364;2022-08-21T01:20:34;9.23;;;8.53;;
5040;SDS011;2539;52.568;13.364;2022-08-21T01:23:02;9.83;;;8.90;;
5040;SDS011;2539;52.568;13.364;2022-08-21T01:25:30;9.53;;;8.73;;
5040;SDS011;2539;52.568;13.364;2022-08-21T01:27:59;9.50;;;8.60;;
5040;SDS011;2539;52.568;13.364;2022-08-21T01:30:32;9.10;;;8.20;;
5040;SDS011;2539;52.568;13.364;2022-08-21T01:33:02;9.33;;;8.50;;
5040;SDS011;2539;52.568;13.364;2022-08-21T01:35:28;8.70;;;8.03;;
5040;SDS011;2539;52.568;13.364;2022-08-21T01:37:55;8.83;;;7.93;;
5040;SDS011;2539;52.568;13.364;2022-08-21T01:40:21;8.50;;;7.70;;
5040;SDS011;2539;52.568;13.364;2022-08-21T01:42:47;8.40;;;7.60;;
5040;SDS011;2539;52.568;13.364;2022-08-21T01:45:14;10.27;;;7.70;;
5040;SDS011;2539;52.568;13.364;2022-08-21T01:47:41;10.80;;;7.63;;
5040;SDS011;2539;52.568;13.364;2022-08-21T01:50:10;7.00;;;6.40;;
5040;SDS011;2539;52.568;13.364;2022-08-21T01:52:38;9.10;;;7.57;;
5040;SDS011;2539;52.568;13.364;2022-08-21T01:55:05;9.10;;;7.37;;
5040;SDS011;2539;52.568;13.364;2022-08-21T01:57:33;7.30;;;6.60;;
5040;SDS011;2539;52.568;13.364;2022-08-21T02:00:00;7.70;;;6.67;;
5040;SDS011;2539;52.568;13.364;2022-08-21T02:02:26;7.50;;;6.30;;
5040;SDS011;2539;52.568;13.364;2022-08-21T02:04:52;7.60;;;5.90;;
5040;SDS011;2539;52.568;13.364;2022-08-21T02:07:18;7.03;;;5.67;;
5040;SDS011;2539;52.568;13.364;2022-08-21T02:09:45;6.97;;;5.70;;
5040;SDS011;2539;52.568;13.364;2022-08-21T02:12:11;7.50;;;5.73;;
5040;SDS011;2539;52.568;13.364;2022-08-21T02:14:38;9.57;;;6.00;;
5040;SDS011;2539;52.568;13.364;2022-08-21T02:17:04;6.27;;;5.63;;
5040;SDS011;2539;52.568;13.364;2022-08-21T02:19:30;7.23;;;5.67;;
5040;SDS011;2539;52.568;13.364;2022-08-21T02:21:57;9.10;;;5.27;;
5040;SDS011;2539;52.568;13.364;2022-08-21T02:24:23;7.10;;;5.63;;
5040;SDS011;2539;52.568;13.364;2022-08-21T02:26:49;6.20;;;5.40;;
5040;SDS011;2539;52.568;13.364;2022-08-21T02:29:15;9.93;;;5.53;;
5040;SDS011;2539;52.568;13.364;2022-08-21T02:31:42;7.73;;;6.10;;
5040;SDS011;2539;52.568;13.364;2022-08-21T02:34:08;6.30;;;5.63;;
5040;SDS011;2539;52.568;13.364;2022-08-21T02:36:34;9.40;;;5.83;;
5040;SDS011;2539;52.568;13.364;2022-08-21T02:39:00;7.37;;;5.10;;
5040;SDS011;2539;52.568;13.364;2022-08-21T02:41:25;8.33;;;5.40;;
5040;SDS011;2539;52.568;13.364;2022-08-21T02:43:51;8.07;;;5.47;;
5040;SDS011;2539;52.568;13.364;2022-08-21T02:46:18;6.50;;;5.10;;
5040;SDS011;2539;52.568;13.364;2022-08-21T02:48:46;9.90;;;5.20;;
5040;SDS011;2539;52.568;13.364;2022-08-21T02:51:16;9.77;;;5.30;;
5040;SDS011;2539;52.568;13.364;2022-08-21T02:53:45;9.73;;;5.00;;
5040;SDS011;2539;52.568;13.364;2022-08-21T02:56:13;7.60;;;5.57;;
5040;SDS011;2539;52.568;13.364;2022-08-21T02:58:49;6.67;;;5.33;;
5040;SDS011;2539;52.568;13.364;2022-08-21T03:01:17;5.27;;;4.77;;
5040;SDS011;2539;52.568;13.364;2022-08-21T03:03:44;6.40;;;4.80;;
5040;SDS011;2539;52.568;13.364;2022-08-21T03:06:13;7.60;;;5.10;;
5040;SDS011;2539;52.568;13.364;2022-08-21T03:08:40;8.93;;;5.03;;
5040;SDS011;2539;52.568;13.364;2022-08-21T03:11:07;7.13;;;5.23;;
5040;SDS011;2539;52.568;13.364;2022-08-21T03:13:33;8.43;;;5.30;;
5040;SDS011;2539;52.568;13.364;2022-08-21T03:15:59;8.80;;;5.37;;
5040;SDS011;2539;52.568;13.364;2022-08-21T03:18:26;12.40;;;5.33;;
5040;SDS011;2539;52.568;13.364;2022-08-21T03:20:52;6.10;;;5.10;;
5040;SDS011;2539;52.568;13.364;2022-08-21T03:23:19;9.32;;;4.70;;
5040;SDS011;2539;52.568;13.364;2022-08-21T03:25:46;7.90;;;4.87;;
5040;SDS011;2539;52.568;13.364;2022-08-21T03:28:15;6.97;;;4.63;;
5040;SDS011;2539;52.568;13.364;2022-08-21T03:30:44;8.73;;;5.17;;
5040;SDS011;2539;52.568;13.364;2022-08-21T03:33:12;13.27;;;4.77;;
5040;SDS011;2539;52.568;13.364;2022-08-21T03:35:39;6.17;;;4.43;;
5040;SDS011;2539;52.568;13.364;2022-08-21T03:38:06;10.23;;;4.25;;
5040;SDS011;2539;52.568;13.364;2022-08-21T03:40:32;7.23;;;4.53;;
5040;SDS011;2539;52.568;13.364;2022-08-21T03:42:58;8.90;;;5.07;;
5040;SDS011;2539;52.568;13.364;2022-08-21T03:45:24;7.80;;;5.27;;
5040;SDS011;2539;52.568;13.364;2022-08-21T03:47:55;5.53;;;4.55;;
5040;SDS011;2539;52.568;13.364;2022-08-21T03:50:24;5.57;;;4.03;;
5040;SDS011;2539;52.568;13.364;2022-08-21T03:52:51;8.23;;;4.70;;
5040;SDS011;2539;52.568;13.364;2022-08-21T03:55:18;6.33;;;4.20;;
5040;SDS011;2539;52.568;13.364;2022-08-21T03:57:44;6.47;;;3.80;;
5040;SDS011;2539;52.568;13.364;2022-08-21T04:00:11;9.93;;;4.70;;
5040;SDS011;2539;52.568;13.364;2022-08-21T04:02:39;9.67;;;4.50;;
5040;SDS011;2539;52.568;13.364;2022-08-21T04:05:06;5.47;;;3.80;;
5040;SDS011;2539;52.568;13.364;2022-08-21T04:07:33;7.13;;;4.38;;
5040;SDS011;2539;52.568;13.364;2022-08-21T04:09:59;6.37;;;4.00;;
5040;SDS011;2539;52.568;13.364;2022-08-21T04:12:26;7.57;;;4.20;;
5040;SDS011;2539;52.568;13.364;2022-08-21T04:14:52;6.50;;;4.43;;
5040;SDS011;2539;52.568;13.364;2022-08-21T04:17:18;8.07;;;4.37;;
5040;SDS011;2539;52.568;13.364;2022-08-21T04:19:45;5.63;;;3.80;;
5040;SDS011;2539;52.568;13.364;2022-08-21T04:22:11;6.30;;;3.83;;
5040;SDS011;2539;52.568;13.364;2022-08-21T04:24:38;7.67;;;4.00;;
5040;SDS011;2539;52.568;13.364;2022-08-21T04:27:04;8.80;;;4.03;;
5040;SDS011;2539;52.568;13.364;2022-08-21T04:29:30;9.27;;;4.20;;
5040;SDS011;2539;52.568;13.364;2022-08-21T04:31:57;6.53;;;4.10;;
5040;SDS011;2539;52.568;13.364;2022-08-21T04:34:23;7.00;;;4.13;;
5040;SDS011;2539;52.568;13.364;2022-08-21T04:36:49;15.93;;;4.83;;
5040;SDS011;2539;52.568;13.364;2022-08-21T04:39:15;6.60;;;4.00;;
5040;SDS011;2539;52.568;13.364;2022-08-21T04:41:42;7.17;;;4.53;;
5040;SDS011;2539;52.568;13.364;2022-08-21T04:44:08;6.33;;;4.07;;
5040;SDS011;2539;52.568;13.364;2022-08-21T04:46:34;8.23;;;4.40;;
5040;SDS011;2539;52.568;13.364;2022-08-21T04:49:01;8.63;;;4.50;;
5040;SDS011;2539;52.568;13.364;2022-08-21T04:51:28;9.87;;;4.77;;
5040;SDS011;2539;52.568;13.364;2022-08-21T04:53:59;10.00;;;4.43;;
5040;SDS011;2539;52.568;13.364;2022-08-21T04:56:32;7.03;;;4.07;;
5040;SDS011;2539;52.568;13.364;2022-08-21T04:59:06;8.50;;;4.30;;
5040;SDS011;2539;52.568;13.364;2022-08-21T05:01:38;9.03;;;4.77;;
5040;SDS011;2539;52.568;13.364;2022-08-21T05:04:07;7.17;;;3.53;;
5040;SDS011;2539;52.568;13.364;2022-08-21T05:06:38;7.73;;;4.20;;
5040;SDS011;2539;52.568;13.364;2022-08-21T05:09:07;7.30;;;3.97;;
5040;SDS011;2539;52.568;13.364;2022-08-21T05:11:35;7.60;;;3.60;;
5040;SDS011;2539;52.568;13.364;2022-08-21T05:14:02;5.70;;;3.50;;
5040;SDS011;2539;52.568;13.364;2022-08-21T05:16:29;6.03;;;3.60;;
5040;SDS011;2539;52.568;13.364;2022-08-21T05:18:55;5.53;;;3.70;;
5040;SDS011;2539;52.568;13.364;2022-08-21T05:21:21;6.87;;;3.47;;
5040;SDS011;2539;52.568;13.364;2022-08-21T05:23:48;10.00;;;3.63;;
5040;SDS011;2539;52.568;13.364;2022-08-21T05:26:14;5.93;;;3.10;;
5040;SDS011;2539;52.568;13.364;2022-08-21T05:28:39;5.57;;;3.10;;
5040;SDS011;2539;52.568;13.364;2022-08-21T05:31:05;8.13;;;3.10;;
5040;SDS011;2539;52.568;13.364;2022-08-21T05:33:31;6.60;;;3.50;;
5040;SDS011;2539;52.568;13.364;2022-08-21T05:35:56;5.70;;;3.20;;
5040;SDS011;2539;52.568;13.364;2022-08-21T05:38:23;8.00;;;3.37;;
5040;SDS011;2539;52.568;13.364;2022-08-21T05:40:50;6.90;;;3.00;;
5040;SDS011;2539;52.568;13.364;2022-08-21T05:43:16;7.70;;;3.17;;
5040;SDS011;2539;52.568;13.364;2022-08-21T05:45:43;8.83;;;3.13;;
5040;SDS011;2539;52.568;13.364;2022-08-21T05:48:19;7.43;;;3.03;;
5040;SDS011;2539;52.568;13.364;2022-08-21T05:50:48;10.77;;;3.23;;
5040;SDS011;2539;52.568;13.364;2022-08-21T05:53:16;4.97;;;3.05;;
5040;SDS011;2539;52.568;13.364;2022-08-21T05:55:43;6.50;;;2.63;;
5040;SDS011;2539;52.568;13.364;2022-08-21T05:58:11;10.10;;;3.27;;
5040;SDS011;2539;52.568;13.364;2022-08-21T06:00:45;9.70;;;3.33;;
5040;SDS011;2539;52.568;13.364;2022-08-21T06:03:20;6.33;;;2.90;;
5040;SDS011;2539;52.568;13.364;2022-08-21T06:05:49;7.20;;;3.03;;
5040;SDS011;2539;52.568;13.364;2022-08-21T06:08:18;11.93;;;2.80;;
5040;SDS011;2539;52.568;13.364;2022-08-21T06:10:45;4.40;;;3.13;;
5040;SDS011;2539;52.568;13.364;2022-08-21T06:13:14;6.93;;;3.47;;
5040;SDS011;2539;52.568;13.364;2022-08-21T06:15:41;6.23;;;3.60;;
5040;SDS011;2539;52.568;13.364;2022-08-21T06:18:07;7.83;;;3.33;;
5040;SDS011;2539;52.568;13.364;2022-08-21T06:20:34;8.57;;;4.03;;
5040;SDS011;2539;52.568;13.364;2022-08-21T06:23:01;10.90;;;4.20;;
5040;SDS011;2539;52.568;13.364;2022-08-21T06:25:27;6.90;;;3.80;;
5040;SDS011;2539;52.568;13.364;2022-08-21T06:27:59;7.20;;;3.87;;
5040;SDS011;2539;52.568;13.364;2022-08-21T06:30:30;8.17;;;4.00;;
5040;SDS011;2539;52.568;13.364;2022-08-21T06:32:56;10.25;;;4.78;;
5040;SDS011;2539;52.568;13.364;2022-08-21T06:35:23;13.57;;;4.00;;
5040;SDS011;2539;52.568;13.364;2022-08-21T06:37:50;10.77;;;4.00;;
5040;SDS011;2539;52.568;13.364;2022-08-21T06:40:16;9.50;;;3.60;;
5040;SDS011;2539;52.568;13.364;2022-08-21T06:42:43;9.87;;;3.93;;
5040;SDS011;2539;52.568;13.364;2022-08-21T06:45:09;6.83;;;3.37;;
5040;SDS011;2539;52.568;13.364;2022-08-21T06:47:36;7.70;;;3.40;;
5040;SDS011;2539;52.568;13.364;2022-08-21T06:50:03;11.13;;;3.57;;
5040;SDS011;2539;52.568;13.364;2022-08-21T06:52:33;8.50;;;4.00;;
5040;SDS011;2539;52.568;13.364;2022-08-21T06:55:00;6.90;;;3.20;;
5040;SDS011;2539;52.568;13.364;2022-08-21T06:57:26;7.80;;;3.00;;
5040;SDS011;2539;52.568;13.364;2022-08-21T06:59:52;7.43;;;3.60;;
5040;SDS011;2539;52.568;13.364;2022-08-21T07:02:19;6.03;;;3.70;;
5040;SDS011;2539;52.568;13.364;2022-08-21T07:04:45;10.60;;;3.47;;
5040;SDS011;2539;52.568;13.364;2022-08-21T07:07:11;10.83;;;3.27;;
5040;SDS011;2539;52.568;13.364;2022-08-21T07:09:38;9.60;;;3.43;;
5040;SDS011;2539;52.568;13.364;2022-08-21T07:12:05;5.75;;;3.20;;
5040;SDS011;2539;52.568;13.364;2022-08-21T07:14:31;6.30;;;2.80;;
5040;SDS011;2539;52.568;13.364;2022-08-21T07:16:58;6.57;;;3.00;;
5040;SDS011;2539;52.568;13.364;2022-08-21T07:19:24;9.23;;;2.80;;
5040;SDS011;2539;52.568;13.364;2022-08-21T07:21:51;11.03;;;3.23;;
5040;SDS011;2539;52.568;13.364;2022-08-21T07:24:22;5.10;;;2.43;;
5040;SDS011;2539;52.568;13.364;2022-08-21T07:26:48;4.90;;;2.30;;
5040;SDS011;2539;52.568;13.364;2022-08-21T07:29:14;4.80;;;2.10;;
5040;SDS011;2539;52.568;13.364;2022-08-21T07:31:41;5.73;;;2.60;;
5040;SDS011;2539;52.568;13.364;2022-08-21T07:34:07;6.55;;;2.38;;
5040;SDS011;2539;52.568;13.364;2022-08-21T07:36:34;5.13;;;2.03;;
5040;SDS011;2539;52.568;13.364;2022-08-21T07:39:00;4.90;;;2.10;;
5040;SDS011;2539;52.568;13.364;2022-08-21T07:41:27;6.60;;;2.17;;
5040;SDS011;2539;52.568;13.364;2022-08-21T07:43:55;6.67;;;1.80;;
5040;SDS011;2539;52.568;13.364;2022-08-21T07:46:23;7.33;;;2.30;;
5040;SDS011;2539;52.568;13.364;2022-08-21T07:48:50;10.77;;;2.17;;
5040;SDS011;2539;52.568;13.364;2022-08-21T07:51:16;5.37;;;2.03;;
5040;SDS011;2539;52.568;13.364;2022-08-21T07:53:47;4.43;;;1.60;;
5040;SDS011;2539;52.568;13.364;2022-08-21T07:56:14;4.23;;;2.00;;
5040;SDS011;2539;52.568;13.364;2022-08-21T07:58:40;7.10;;;1.87;;
5040;SDS011;2539;52.568;13.364;2022-08-21T08:01:06;5.67;;;2.13;;
5040;SDS011;2539;52.568;13.364;2022-08-21T08:03:33;7.00;;;2.03;;
5040;SDS011;2539;52.568;13.364;2022-08-21T08:06:00;4.40;;;2.20;;
5040;SDS011;2539;52.568;13.364;2022-08-21T08:08:26;4.85;;;1.92;;
5040;SDS011;2539;52.568;13.364;2022-08-21T08:10:53;7.40;;;2.10;;
5040;SDS011;2539;52.568;13.364;2022-08-21T08:13:22;5.60;;;2.27;;
5040;SDS011;2539;52.568;13.364;2022-08-21T08:15:48;6.20;;;1.87;;
5040;SDS011;2539;52.568;13.364;2022-08-21T08:18:15;3.83;;;2.20;;
5040;SDS011;2539;52.568;13.364;2022-08-21T08:20:41;3.27;;;1.70;;
5040;SDS011;2539;52.568;13.364;2022-08-21T08:23:11;6.53;;;2.10;;
5040;SDS011;2539;52.568;13.364;2022-08-21T08:25:38;3.80;;;2.27;;
5040;SDS011;2539;52.568;13.364;2022-08-21T08:28:05;7.67;;;2.77;;
5040;SDS011;2539;52.568;13.364;2022-08-21T08:30:32;4.80;;;2.00;;
5040;SDS011;2539;52.568;13.364;2022-08-21T08:32:58;4.40;;;1.83;;
5040;SDS011;2539;52.568;13.364;2022-08-21T08:35:26;6.75;;;1.85;;
5040;SDS011;2539;52.568;13.364;2022-08-21T08:37:54;4.93;;;2.03;;
5040;SDS011;2539;52.568;13.364;2022-08-21T08:40:42;4.90;;;1.70;;
5040;SDS011;2539;52.568;13.364;2022-08-21T08:43:13;3.87;;;1.60;;
5040;SDS011;2539;52.568;13.364;2022-08-21T08:45:44;4.87;;;2.37;;
5040;SDS011;2539;52.568;13.364;2022-08-21T08:48:14;6.00;;;2.20;;
5040;SDS011;2539;52.568;13.364;2022-08-21T08:50:59;5.00;;;1.80;;
5040;SDS011;2539;52.568;13.364;2022-08-21T08:53:43;5.23;;;1.80;;
5040;SDS011;2539;52.568;13.364;2022-08-21T08:56:14;7.10;;;4.57;;
5040;SDS011;2539;52.568;13.364;2022-08-21T08:58:42;6.03;;;2.40;;
5040;SDS011;2539;52.568;13.364;2022-08-21T09:01:12;4.90;;;2.40;;
5040;SDS011;2539;52.568;13.364;2022-08-21T09:03:44;6.30;;;2.13;;
5040;SDS011;2539;52.568;13.364;2022-08-21T09:08:59;4.47;;;1.80;;
5040;SDS011;2539;52.568;13.364;2022-08-21T09:20:17;4.50;;;1.90;;
5040;SDS011;2539;52.568;13.364;2022-08-21T09:22:57;6.97;;;2.30;;
5040;SDS011;2539;52.568;13.364;2022-08-21T09:26:14;8.10;;;1.90;;
5040;SDS011;2539;52.568;13.364;2022-08-21T09:28:37;6.20;;;1.97;;
5040;SDS011;2539;52.568;13.364;2022-08-21T09:31:07;3.20;;;1.90;;
5040;SDS011;2539;52.568;13.364;2022-08-21T09:33:36;4.87;;;2.10;;
5040;SDS011;2539;52.568;13.364;2022-08-21T09:36:02;4.57;;;2.13;;
5040;SDS011;2539;52.568;13.364;2022-08-21T09:38:33;5.00;;;1.80;;
5040;SDS011;2539;52.568;13.364;2022-08-21T09:41:03;4.37;;;1.93;;
5040;SDS011;2539;52.568;13.364;2022-08-21T09:43:32;6.03;;;2.10;;
5040;SDS011;2539;52.568;13.364;2022-08-21T09:46:09;5.60;;;1.90;;
5040;SDS011;2539;52.568;13.364;2022-08-21T09:48:42;5.87;;;1.93;;
5040;SDS011;2539;52.568;13.364;2022-08-21T09:51:13;9.30;;;2.10;;
5040;SDS011;2539;52.568;13.364;2022-08-21T09:53:44;4.60;;;2.00;;
5040;SDS011;2539;52.568;13.364;2022-08-21T09:56:20;5.60;;;2.10;;
5040;SDS011;2539;52.568;13.364;2022-08-21T09:59:16;7.20;;;2.50;;
5040;SDS011;2539;52.568;13.364;2022-08-21T10:01:56;3.33;;;1.53;;
5040;SDS011;2539;52.568;13.364;2022-08-21T10:04:33;3.67;;;1.60;;
5040;SDS011;2539;52.568;13.364;2022-08-21T10:07:10;7.10;;;1.90;;
5040;SDS011;2539;52.568;13.364;2022-08-21T10:09:40;3.27;;;1.83;;
5040;SDS011;2539;52.568;13.364;2022-08-21T10:12:21;5.20;;;2.30;;
5040;SDS011;2539;52.568;13.364;2022-08-21T10:17:37;4.80;;;1.73;;
5040;SDS011;2539;52.568;13.364;2022-08-21T10:20:17;4.63;;;1.93;;
5040;SDS011;2539;52.568;13.364;2022-08-21T10:22:58;4.53;;;2.17;;
5040;SDS011;2539;52.568;13.364;2022-08-21T10:25:38;4.10;;;2.20;;
5040;SDS011;2539;52.568;13.364;2022-08-21T10:28:20;6.10;;;1.80;;
5040;SDS011;2539;52.568;13.364;2022-08-21T10:31:22;4.03;;;1.90;;
5040;SDS011;2539;52.568;13.364;2022-08-21T10:34:09;5.23;;;1.87;;
5040;SDS011;2539;52.568;13.364;2022-08-21T10:37:01;4.77;;;2.00;;
5040;SDS011;2539;52.568;13.364;2022-08-21T10:42:53;8.13;;;2.10;;
5040;SDS011;2539;52.568;13.364;2022-08-21T10:45:44;15.63;;;14.13;;
5040;SDS011;2539;52.568;13.364;2022-08-21T10:48:44;8.37;;;1.90;;
5040;SDS011;2539;52.568;13.364;2022-08-21T10:51:20;4.60;;;1.70;;
5040;SDS011;2539;52.568;13.364;2022-08-21T10:54:12;5.23;;;1.90;;
5040;SDS011;2539;52.568;13.364;2022-08-21T10:56:48;13.03;;;1.93;;
5040;SDS011;2539;52.568;13.364;2022-08-21T10:59:26;3.90;;;1.60;;
5040;SDS011;2539;52.568;13.364;2022-08-21T11:02:15;4.88;;;1.70;;
5040;SDS011;2539;52.568;13.364;2022-08-21T11:04:52;3.10;;;1.80;;
5040;SDS011;2539;52.568;13.364;2022-08-21T11:07:38;3.97;;;1.70;;
5040;SDS011;2539;52.568;13.364;2022-08-21T11:10:24;4.33;;;2.03;;
5040;SDS011;2539;52.568;13.364;2022-08-21T11:12:56;3.40;;;1.43;;
5040;SDS011;2539;52.568;13.364;2022-08-21T11:15:33;4.07;;;1.63;;
5040;SDS011;2539;52.568;13.364;2022-08-21T11:18:15;2.27;;;1.17;;
5040;SDS011;2539;52.568;13.364;2022-08-21T11:20:59;4.40;;;1.80;;
5040;SDS011;2539;52.568;13.364;2022-08-21T11:23:45;3.17;;;1.40;;
5040;SDS011;2539;52.568;13.364;2022-08-21T11:26:27;4.37;;;1.37;;
5040;SDS011;2539;52.568;13.364;2022-08-21T11:29:04;3.50;;;2.43;;
5040;SDS011;2539;52.568;13.364;2022-08-21T11:34:35;4.30;;;1.60;;
5040;SDS011;2539;52.568;13.364;2022-08-21T11:37:28;6.43;;;1.50;;
5040;SDS011;2539;52.568;13.364;2022-08-21T11:45:43;5.30;;;4.50;;
5040;SDS011;2539;52.568;13.364;2022-08-21T11:48:25;2.90;;;1.50;;
5040;SDS011;2539;52.568;13.364;2022-08-21T11:51:12;3.03;;;1.67;;
5040;SDS011;2539;52.568;13.364;2022-08-21T11:53:58;2.27;;;1.27;;
5040;SDS011;2539;52.568;13.364;2022-08-21T11:56:54;2.43;;;1.60;;
5040;SDS011;2539;52.568;13.364;2022-08-21T11:59:34;4.30;;;1.77;;
5040;SDS011;2539;52.568;13.364;2022-08-21T12:02:10;3.83;;;1.60;;
5040;SDS011;2539;52.568;13.364;2022-08-21T12:04:42;4.43;;;1.17;;
5040;SDS011;2539;52.568;13.364;2022-08-21T12:07:13;2.97;;;1.33;;
5040;SDS011;2539;52.568;13.364;2022-08-21T12:09:50;2.43;;;1.30;;
5040;SDS011;2539;52.568;13.364;2022-08-21T12:12:27;2.17;;;0.97;;
5040;SDS011;2539;52.568;13.364;2022-08-21T12:17:38;3.43;;;1.40;;
5040;SDS011;2539;52.568;13.364;2022-08-21T12:20:15;2.63;;;1.20;;
5040;SDS011;2539;52.568;13.364;2022-08-21T12:22:49;5.00;;;3.03;;
5040;SDS011;2539;52.568;13.364;2022-08-21T12:25:20;2.90;;;1.37;;
5040;SDS011;2539;52.568;13.364;2022-08-21T12:27:49;3.70;;;1.63;;
5040;SDS011;2539;52.568;13.364;2022-08-21T12:32:57;3.93;;;1.37;;
5040;SDS011;2539;52.568;13.364;2022-08-21T12:35:37;3.70;;;1.30;;
5040;SDS011;2539;52.568;13.364;2022-08-21T12:38:12;2.73;;;0.90;;
5040;SDS011;2539;52.568;13.364;2022-08-21T12:40:43;3.47;;;1.30;;
5040;SDS011;2539;52.568;13.364;2022-08-21T12:43:15;3.40;;;1.40;;
5040;SDS011;2539;52.568;13.364;2022-08-21T12:45:46;2.43;;;1.20;;
5040;SDS011;2539;52.568;13.364;2022-08-21T12:48:15;6.80;;;2.07;;
5040;SDS011;2539;52.568;13.364;2022-08-21T12:50:54;2.70;;;1.33;;
5040;SDS011;2539;52.568;13.364;2022-08-21T12:53:33;3.50;;;2.20;;
5040;SDS011;2539;52.568;13.364;2022-08-21T12:56:16;5.47;;;1.33;;
5040;SDS011;2539;52.568;13.364;2022-08-21T12:58:46;4.13;;;1.50;;
5040;SDS011;2539;52.568;13.364;2022-08-21T13:03:55;3.13;;;1.50;;
5040;SDS011;2539;52.568;13.364;2022-08-21T13:06:47;2.23;;;1.30;;
5040;SDS011;2539;52.568;13.364;2022-08-21T13:09:19;2.83;;;1.60;;
5040;SDS011;2539;52.568;13.364;2022-08-21T13:11:51;2.67;;;1.40;;
5040;SDS011;2539;52.568;13.364;2022-08-21T13:17:08;3.63;;;1.73;;
5040;SDS011;2539;52.568;13.364;2022-08-21T13:19:36;3.73;;;1.87;;
5040;SDS011;2539;52.568;13.364;2022-08-21T13:22:03;3.57;;;1.73;;
5040;SDS011;2539;52.568;13.364;2022-08-21T13:24:33;5.77;;;2.67;;
5040;SDS011;2539;52.568;13.364;2022-08-21T13:27:01;3.30;;;1.50;;
5040;SDS011;2539;52.568;13.364;2022-08-21T13:29:29;2.93;;;1.53;;
5040;SDS011;2539;52.568;13.364;2022-08-21T13:31:58;4.10;;;1.80;;
5040;SDS011;2539;52.568;13.364;2022-08-21T13:34:29;5.57;;;1.70;;
5040;SDS011;2539;52.568;13.364;2022-08-21T13:36:59;5.27;;;1.90;;
5040;SDS011;2539;52.568;13.364;2022-08-21T13:39:29;4.77;;;2.03;;
5040;SDS011;2539;52.568;13.364;2022-08-21T13:41:57;3.70;;;1.97;;
5040;SDS011;2539;52.568;13.364;2022-08-21T13:46:56;2.90;;;1.70;;
5040;SDS011;2539;52.568;13.364;2022-08-21T13:49:36;3.60;;;1.93;;
5040;SDS011;2539;52.568;13.364;2022-08-21T13:52:04;3.93;;;2.23;;
5040;SDS011;2539;52.568;13.364;2022-08-21T13:54:39;6.40;;;2.20;;
5040;SDS011;2539;52.568;13.364;2022-08-21T13:57:16;8.63;;;2.07;;
5040;SDS011;2539;52.568;13.364;2022-08-21T13:59:45;4.20;;;2.30;;
5040;SDS011;2539;52.568;13.364;2022-08-21T14:02:16;5.10;;;2.23;;
5040;SDS011;2539;52.568;13.364;2022-08-21T14:04:56;8.77;;;2.30;;
5040;SDS011;2539;52.568;13.364;2022-08-21T14:07:26;6.60;;;4.63;;
5040;SDS011;2539;52.568;13.364;2022-08-21T14:10:00;6.70;;;2.30;;
5040;SDS011;2539;52.568;13.364;2022-08-21T14:12:37;6.47;;;2.70;;
5040;SDS011;2539;52.568;13.364;2022-08-21T14:15:08;4.73;;;1.90;;
5040;SDS011;2539;52.568;13.364;2022-08-21T14:17:38;6.60;;;3.30;;
5040;SDS011;2539;52.568;13.364;2022-08-21T14:20:09;3.97;;;2.73;;
5040;SDS011;2539;52.568;13.364;2022-08-21T14:22:39;5.60;;;3.43;;
5040;SDS011;2539;52.568;13.364;2022-08-21T14:25:10;5.50;;;2.17;;
5040;SDS011;2539;52.568;13.364;2022-08-21T14:28:03;3.60;;;1.83;;
5040;SDS011;2539;52.568;13.364;2022-08-21T14:30:43;5.93;;;2.00;;
5040;SDS011;2539;52.568;13.364;2022-08-21T14:33:11;5.10;;;2.00;;
5040;SDS011;2539;52.568;13.364;2022-08-21T14:35:39;6.30;;;2.23;;
5040;SDS011;2539;52.568;13.364;2022-08-21T14:38:13;4.87;;;2.30;;
5040;SDS011;2539;52.568;13.364;2022-08-21T14:40:42;3.63;;;2.00;;
5040;SDS011;2539;52.568;13.364;2022-08-21T14:43:09;4.57;;;2.17;;
5040;SDS011;2539;52.568;13.364;2022-08-21T14:45:36;4.50;;;2.50;;
5040;SDS011;2539;52.568;13.364;2022-08-21T14:48:04;8.83;;;2.40;;
5040;SDS011;2539;52.568;13.364;2022-08-21T14:50:30;4.90;;;2.30;;
5040;SDS011;2539;52.568;13.364;2022-08-21T14:52:55;6.17;;;2.13;;
5040;SDS011;2539;52.568;13.364;2022-08-21T14:55:21;6.00;;;2.60;;
5040;SDS011;2539;52.568;13.364;2022-08-21T14:57:48;5.20;;;2.00;;
5040;SDS011;2539;52.568;13.364;2022-08-21T15:00:17;4.03;;;2.23;;
5040;SDS011;2539;52.568;13.364;2022-08-21T15:02:49;5.00;;;2.17;;
5040;SDS011;2539;52.568;13.364;2022-08-21T15:05:16;4.17;;;2.33;;
5040;SDS011;2539;52.568;13.364;2022-08-21T15:07:43;4.40;;;2.07;;
5040;SDS011;2539;52.568;13.364;2022-08-21T15:10:11;4.00;;;1.93;;
5040;SDS011;2539;52.568;13.364;2022-08-21T15:12:38;3.03;;;2.00;;
5040;SDS011;2539;52.568;13.364;2022-08-21T15:15:05;4.67;;;1.90;;
5040;SDS011;2539;52.568;13.364;2022-08-21T15:17:32;5.78;;;2.28;;
5040;SDS011;2539;52.568;13.364;2022-08-21T15:19:59;4.47;;;2.30;;
5040;SDS011;2539;52.568;13.364;2022-08-21T15:22:25;6.70;;;2.95;;
5040;SDS011;2539;52.568;13.364;2022-08-21T15:24:52;6.20;;;2.30;;
5040;SDS011;2539;52.568;13.364;2022-08-21T15:27:18;5.37;;;2.47;;
5040;SDS011;2539;52.568;13.364;2022-08-21T15:29:45;5.07;;;1.90;;
5040;SDS011;2539;52.568;13.364;2022-08-21T15:32:18;6.20;;;2.43;;
5040;SDS011;2539;52.568;13.364;2022-08-21T15:34:47;3.43;;;2.27;;
5040;SDS011;2539;52.568;13.364;2022-08-21T15:37:13;5.63;;;2.50;;
5040;SDS011;2539;52.568;13.364;2022-08-21T15:39:39;3.90;;;2.47;;
5040;SDS011;2539;52.568;13.364;2022-08-21T15:42:05;3.87;;;2.20;;
5040;SDS011;2539;52.568;13.364;2022-08-21T15:44:32;6.90;;;2.70;;
5040;SDS011;2539;52.568;13.364;2022-08-21T15:46:58;4.57;;;2.50;;
5040;SDS011;2539;52.568;13.364;2022-08-21T15:49:25;6.90;;;3.50;;
5040;SDS011;2539;52.568;13.364;2022-08-21T15:51:51;7.57;;;2.10;;
5040;SDS011;2539;52.568;13.364;2022-08-21T15:54:18;4.72;;;2.85;;
5040;SDS011;2539;52.568;13.364;2022-08-21T15:56:45;6.03;;;4.60;;
5040;SDS011;2539;52.568;13.364;2022-08-21T15:59:15;4.10;;;2.00;;